N14654 KASE-
Flight info
| Callsign | N14654 |
|---|---|
| Flight time | N/A |
| Altitude | VFR |
| Route | VFR N FF |
| Aircraft | BE36/L-DOV/C |
Departure
| Time | 2026-04-22 00:54 |
|---|---|
| Airport | Aspen-Pitkin County Airport (Sardy Field) (KASE) |
Arrival
| Time | N/A |
|---|---|
| Airport | - |
| Time | Latitude | Longitude | Altitude | Speed | Heading |
|---|---|---|---|---|---|
| 2026-04-22 00:42 | 39.22728 | -106.86921 | 7815 ft | 0 kts | 249° |
| 2026-04-22 00:45 | 39.22720 | -106.86937 | 7815 ft | 9 kts | 211° |
| 2026-04-22 00:46 | 39.22622 | -106.86911 | 7815 ft | 20 kts | 161° |
| 2026-04-22 00:47 | 39.22571 | -106.86886 | 7815 ft | 0 kts | 160° |
| 2026-04-22 00:47 | 39.22524 | -106.86863 | 7815 ft | 20 kts | 161° |
| 2026-04-22 00:47 | 39.22350 | -106.86780 | 7814 ft | 32 kts | 160° |
| 2026-04-22 00:47 | 39.22123 | -106.86673 | 7815 ft | 37 kts | 160° |
| 2026-04-22 00:48 | 39.21877 | -106.86556 | 7816 ft | 37 kts | 159° |
| 2026-04-22 00:48 | 39.21657 | -106.86450 | 7816 ft | 22 kts | 158° |
| 2026-04-22 00:48 | 39.21504 | -106.86378 | 7815 ft | 20 kts | 160° |
| 2026-04-22 00:48 | 39.21414 | -106.86335 | 7815 ft | 13 kts | 161° |
| 2026-04-22 00:49 | 39.21324 | -106.86292 | 7816 ft | 13 kts | 159° |
| 2026-04-22 00:49 | 39.21271 | -106.86266 | 7815 ft | 0 kts | 162° |
| 2026-04-22 00:50 | 39.21267 | -106.86264 | 7815 ft | 4 kts | 162° |
| 2026-04-22 00:50 | 39.21217 | -106.86252 | 7815 ft | 0 kts | 191° |
| 2026-04-22 00:53 | 39.21215 | -106.86253 | 7815 ft | 2 kts | 192° |
| 2026-04-22 00:54 | 39.21186 | -106.86344 | 7815 ft | 17 kts | 323° |
| 2026-04-22 00:54 | 39.21540 | -106.86520 | 7818 ft | 95 kts | 338° |
| 2026-04-22 00:54 | 39.22263 | -106.86890 | 8063 ft | 123 kts | 337° |
| 2026-04-22 00:54 | 39.23112 | -106.87351 | 8436 ft | 140 kts | 330° |
| 2026-04-22 00:55 | 39.23998 | -106.87915 | 9117 ft | 143 kts | 327° |
| 2026-04-22 00:55 | 39.24924 | -106.88535 | 9352 ft | 156 kts | 329° |
| 2026-04-22 00:55 | 39.26761 | -106.89769 | 10318 ft | 147 kts | 326° |
| 2026-04-22 00:56 | 39.27620 | -106.90465 | 10728 ft | 147 kts | 321° |
| 2026-04-22 00:56 | 39.28466 | -106.91191 | 11253 ft | 148 kts | 327° |